Summerfield, Illinois
Current Conditions -  °F | °C
As of 12:58 PM on Sunday 21 Dec 2014 (Local Time) from KBLV Reporting Station
Overcast Overcast  
Wind Chill: 36°   Ceiling: 3200
Heat Index: 42°   Visibility: 10mi
Dew Point: 33°   Wind: 8mph
Humidity: 71%   Direction: 130°SE
Pressure: 30.11"   Gusts: NA
Location:  38.6°N, 89.75°W
Report Text: KBLV 211858Z AUTO 13007KT 10SM OVC032 05/01 A3011 RMK AO2 SLP202 T00530005 $
Loading
Personal Weather Stations






























Interactive Weather Map New forecast layout! Learn more

10-Day Weather Forecast

Advertisements
Track Severe Weather on mobile